Tiempo atmosférico en la estación meteorológica de Arucas, Las Palmas (86 m.)

Fecha
DESCASC
Temp. máxima en grados centígrados (hora)
DESCASC
Temp. mínima en grados centígrados (hora)
DESCASC
Temp. media en grados centígrados
DESCASC
Racha de viento máxima en m/sg (hora)
DESCASC
Velocidad máxima media en intervalos de 10 minutos(hora)
DESCASC
Precipitaciones diarias en mm
DESCASC
Precipitaciones de 00:00 a 06:00 en mm
DESCASC
Precipitaciones de 06:00 a 12:00 en mm
DESCASC
Precipitaciones de 12:00 a 18:00 en mm
DESCASC
Precipitaciones de 18:00 a 24:00 en mm
DESCASC
24-09-2017 25.1 (13:10) 20.4 (06:40) 22.8 7.5 (12:30) 5 (12:50) 0 0 0 0 0
23-09-2017 23.2 (15:10) 20.8 (05:10) 22 7.5 (00:20) 4.44 (00:20) 0 0 0 0 0
22-09-2017 24.7 (16:00) 20.7 (05:20) 22.7 8.89 (01:40) 5.28 (06:50) 0.2 0 0 0 0.2
21-09-2017 24 (14:10) 20.2 (00:00) 22.1 8.61 (23:40) 5.28 (23:40) 2.6 0 2.6 0 0
20-09-2017 25.1 (15:20) 20 (00:00) 22.6 5.56 (16:00) 3.06 (15:20) 0 0 0 0 0
19-09-2017 24.7 (15:50) 20.8 (00:00) 22.8 5.83 (00:30) 3.61 (13:30) 0 0 0 0 0
18-09-2017 24.6 (15:00) 21 (00:00) 22.8 7.78 (12:30) 5.56 (13:50) 0 0 0 0 0
17-09-2017 24 (15:00) 21 (00:00) 22.5 6.67 (13:40) 4.17 (14:10) 0 0 0 0 0
16-09-2017 23.8 (15:30) 21.5 (00:00) 22.6 6.39 (12:00) 3.89 (12:20) 0 0 0 0 0
15-09-2017 25.3 (13:20) 21.4 (00:00) 23.3 8.06 (17:10) 5.56 (16:50) 0 0 0 0 0
14-09-2017 25.2 (14:00) 20.9 (00:00) 23.1 4.17 (11:50) 2.5 (14:30) 0 0 0 0 0
13-09-2017 25.6 (15:30) 18.6 (00:00) 22.1 6.11 (14:40) 3.89 (14:40) 0 0 0 0 0
12-09-2017 24.9 (15:50) 19.8 (00:00) 22.3 4.72 (15:20) 3.06 (17:20) 0 0 0 0 0
11-09-2017 25 (14:00) 19.6 (00:00) 22.3 7.5 (03:10) 3.89 (17:30) 3.6 2 0.2 0.6 0.8
10-09-2017 25.3 (13:50) 20.9 (00:00) 23.1 6.11 (22:50) 3.33 (14:30) 0.4 0 0 0 0.4
09-09-2017 24.8 (13:30) 21.5 (00:00) 23.1 3.89 (17:30) 2.78 (15:30) 0 0 0 0 0
08-09-2017 25.2 (15:00) 21.5 (00:00) 23.4 5 (14:30) 2.78 (16:10) 0 0 0 0 0
07-09-2017 24.5 (14:00) 22 (00:00) 23.3 5 (08:00) 2.5 (12:30) 0 0 0 0 0
06-09-2017 24.7 (14:50) 21.8 (00:00) 23.3 6.39 (04:20) 3.89 (16:00) 0 0 0 0 0
05-09-2017 24.5 (15:50) 21 (00:00) 22.8 8.06 (00:10) 3.06 (02:20) 0 0 0 0 0
04-09-2017 25.7 (14:50) 22 (00:00) 23.9 6.11 (23:50) 2.78 (23:50) 0 0 0 0 0
03-09-2017 25.2 (15:00) 22.1 (00:00) 23.7 4.44 (05:30) 2.78 (15:10) 0 0 0 0 0
02-09-2017 24.4 (13:30) 21.5 (00:00) 22.9 5 (04:50) 3.06 (04:50) 0 0 0 0 0
01-09-2017 25.2 (16:40) 21 (00:00) 23.1 7.22 (01:50) 4.72 (12:30) 0.4 0.2 0.2 0 0
31-08-2017 25.2 (15:00) 21.8 (00:00) 23.5 8.06 (12:50) 4.44 (12:50) 0.4 0.2 0 0.2 0
30-08-2017 25.9 (14:30) 21.1 (00:00) 23.5 6.67 (20:00) 3.61 (07:00) 0 0 0 0 0
29-08-2017 25.3 (15:20) 20.8 (00:00) 23 6.11 (22:50) 3.06 (15:10) 0 0 0 0 0
28-08-2017 25.5 (15:00) 21.7 (00:00) 23.6 5.28 (14:20) 3.33 (14:20) 0 0 0 0 0
27-08-2017 25.3 (15:20) 21.7 (00:00) 23.5 5.83 (17:50) 3.06 (15:10) 0 0 0 0 0
26-08-2017 25.5 (16:40) 22.3 (00:00) 23.9 6.11 (08:10) 3.61 (08:30) 0 0 0 0 0

Gráficas

Temp. máximas Temp. mínimas Temp. medias Precipitaciones Rachas de viento máximas Velocidades máximas media en intervalos de 10 minutos

Datos horarios

Fecha y hora oficial Temperatura (ºC) Velocidad del viento (km/h) Dirección del viento Racha (km/h) Dirección de racha Precipitación (mm) Presión (hPa) Tendencia (hPa) Humedad (%)
2017-09-24 23:00:00 22.2 4 Este 10 Nordeste 0 -- -- 94
2017-09-24 22:00:00 22.2 4 Norte 14 Norte 0 -- -- 94
2017-09-24 21:00:00 22.3 4 Noroeste 8 Oeste 0 -- -- 93
2017-09-24 20:00:00 22.5 6 Nordeste 15 Este 0 -- -- 91
2017-09-24 19:00:00 23.1 10 Este 17 Este 0 -- -- 89
2017-09-24 18:00:00 23.3 4 Norte 14 Nordeste 0 -- -- 88
2017-09-24 17:00:00 23.7 8 Nordeste 16 Nordeste 0 -- -- 85
2017-09-24 16:00:00 24 10 Nordeste 14 Nordeste 0 -- -- 84
2017-09-24 15:00:00 24.1 8 Nordeste 14 Norte 0 -- -- 82
2017-09-24 14:00:00 25 8 Norte 21 Este 0 -- -- 79
2017-09-24 13:00:00 24.8 17 Este 27 Este 0 -- -- 78
2017-09-24 12:00:00 24.4 15 Este 25 Este 0 -- -- 77
2017-09-24 11:00:00 23.8 11 Nordeste 18 Este 0 -- -- 81
2017-09-24 10:00:00 22.3 8 Este 14 Este 0 -- -- 86
2017-09-24 09:00:00 21.2 0 Calma 14 Sudeste 0 -- -- 89
2017-09-24 08:00:00 20.6 9 Sudeste 14 Sudeste 0 -- -- 89
2017-09-24 07:00:00 20.4 5 Sudeste 7 Sudeste 0 -- -- 92
2017-09-24 06:00:00 20.8 0 Calma 5 Nordeste 0 -- -- 92
2017-09-24 05:00:00 21.2 3 Nordeste 6 Nordeste 0 -- -- 92
2017-09-24 04:00:00 21 3 Sudeste 11 Este 0 -- -- 92
2017-09-24 03:00:00 21.4 7 Este 12 Nordeste 0 -- -- 92
2017-09-24 02:00:00 21.6 7 Este 12 Este 0 -- -- 91
2017-09-24 01:00:00 21.6 8 Este 14 Este 0 -- -- 90
2017-09-24 00:00:00 21.7 7 Este 12 Este 0 -- -- 89
2017-09-23 23:00:00 21.7 8 Este 14 Nordeste 0 -- -- 88
2017-09-23 22:00:00 21.7 8 Nordeste 16 Nordeste 0 -- -- 88
2017-09-23 21:00:00 21.7 8 Nordeste 15 Este 0 -- -- 86
2017-09-23 20:00:00 21.8 5 Nordeste 12 Nordeste 0 -- -- 86
2017-09-23 19:00:00 22.2 6 Nordeste 14 Nordeste 0 -- -- 84
2017-09-23 18:00:00 22.2 6 Nordeste 14 Norte 0 -- -- 83
2017-09-23 17:00:00 22.7 8 Nordeste 18 Nordeste 0 -- -- 81
2017-09-23 16:00:00 23.1 6 Nordeste 17 Nordeste 0 -- -- 80
2017-09-23 15:00:00 23.1 8 Norte 20 Norte 0 -- -- 79
2017-09-23 14:00:00 22.6 9 Norte 19 Norte 0 -- -- 81
2017-09-23 13:00:00 22.5 9 Norte 19 Norte 0 -- -- 81
2017-09-23 12:00:00 22.5 6 Norte 14 Norte 0 -- -- 80
2017-09-23 11:00:00 22.1 8 Norte 18 Norte 0 -- -- 81
2017-09-23 10:00:00 21.7 8 Norte 18 Norte 0 -- -- 82
2017-09-23 09:00:00 21.4 8 Norte 20 Norte 0 -- -- 83
2017-09-23 08:00:00 21.1 5 Norte 16 Norte 0 -- -- 83
2017-09-23 07:00:00 20.9 4 Noroeste 15 Norte 0 -- -- 83
2017-09-23 06:00:00 21 4 Noroeste 16 Norte 0 -- -- 82
2017-09-23 05:00:00 20.9 9 Norte 20 Norte 0 -- -- 81
2017-09-23 04:00:00 20.9 10 Norte 18 Norte 0 -- -- 79
2017-09-23 03:00:00 21 6 Norte 21 Norte 0 -- -- 79
2017-09-23 02:00:00 21.2 9 Norte 24 Norte 0 -- -- 79
2017-09-23 01:00:00 21.3 10 Norte 27 Norte 0 -- -- 79
2017-09-23 00:00:00 21.5 5 Noroeste 23 Norte 0 -- -- 79
2017-09-22 23:00:00 21.4 7 Norte 26 Norte 0 -- -- 81
2017-09-22 22:00:00 21.6 6 Norte 21 Nordeste 0 -- -- 81
2017-09-22 21:00:00 21.7 6 Noroeste 25 Norte 0 -- -- 83
2017-09-22 20:00:00 21.7 9 Norte 19 Norte 0.2 -- -- 83
2017-09-22 19:00:00 22.7 11 Norte 20 Nordeste 0 -- -- 76
2017-09-22 18:00:00 23.4 12 Norte 23 Norte 0 -- -- 75
2017-09-22 17:00:00 24.1 15 Norte 23 Norte 0 -- -- 72
2017-09-22 16:00:00 24.7 10 Norte 20 Nordeste 0 -- -- 70
2017-09-22 15:00:00 24.1 10 Norte 19 Norte 0 -- -- 73
2017-09-22 14:00:00 24.5 10 Norte 22 Norte 0 -- -- 70
2017-09-22 13:00:00 24.2 13 Norte 23 Norte 0 -- -- 71
2017-09-22 12:00:00 24.5 10 Norte 26 Norte 0 -- -- 68
2017-09-22 11:00:00 22.8 17 Norte 24 Norte 0 -- -- 73
2017-09-22 10:00:00 22.3 6 Norte 23 Norte 0 -- -- 72
2017-09-22 09:00:00 21.5 8 Noroeste 25 Norte 0 -- -- 74
2017-09-22 08:00:00 21.1 12 Norte 30 Norte 0 -- -- 73
2017-09-22 07:00:00 20.9 19 Norte 32 Norte 0 -- -- 77
2017-09-22 06:00:00 21 9 Norte 24 Norte 0 -- -- 75
2017-09-22 05:00:00 20.9 14 Norte 26 Norte 0 -- -- 79
2017-09-22 04:00:00 21.2 14 Norte 23 Norte 0 -- -- 80
2017-09-22 03:00:00 21.3 8 Norte 24 Norte 0 -- -- 82
2017-09-22 02:00:00 21.2 17 Norte 32 Norte 0 -- -- 81
2017-09-22 01:00:00 21.4 15 Norte 28 Norte 0 -- -- 84
2017-09-22 00:00:00 21.6 14 Norte 31 Norte 0 -- -- 83
2017-09-21 23:00:00 21.8 8 Noroeste 22 Nordeste 0 -- -- 84
2017-09-21 22:00:00 21.7 9 Norte 27 Norte 0 -- -- 85
2017-09-21 21:00:00 22 6 Noroeste 18 Norte 0 -- -- 83
2017-09-21 20:00:00 22 7 Noroeste 21 Noroeste 0 -- -- 80
2017-09-21 19:00:00 22.6 7 Noroeste 21 Noroeste 0 -- -- 81
2017-09-21 18:00:00 23.7 9 Noroeste 24 Noroeste 0 -- -- 77
2017-09-21 17:00:00 22.9 8 Noroeste 19 Norte 0 -- -- 78
2017-09-21 16:00:00 22.2 10 Norte 30 Norte 0 -- -- 78
2017-09-21 15:00:00 23.7 11 Noroeste 25 Noroeste 0 -- -- 80
2017-09-21 14:00:00 23.7 7 Noroeste 19 Noroeste 0 -- -- 77
2017-09-21 13:00:00 22.7 8 Noroeste 20 Oeste 0 -- -- 79
2017-09-21 12:00:00 20.5 6 Noroeste 21 Noroeste 1.6 -- -- 87
2017-09-21 11:00:00 22.1 10 Oeste 21 Norte 0.2 -- -- 84
2017-09-21 10:00:00 20.4 11 Norte 22 Norte 0.8 -- -- 89
2017-09-21 09:00:00 21.8 13 Noroeste 22 Oeste 0 -- -- 83
2017-09-21 08:00:00 21.3 14 Noroeste 25 Noroeste 0 -- -- 82
2017-09-21 07:00:00 21.1 9 Noroeste 23 Noroeste 0 -- -- 84
2017-09-21 06:00:00 21.3 14 Noroeste 24 Noroeste 0 -- -- 84
2017-09-21 05:00:00 21.5 8 Noroeste 22 Noroeste 0 -- -- 84
2017-09-21 04:00:00 21.5 6 Norte 22 Norte 0 -- -- 84
2017-09-21 03:00:00 21.6 8 Norte 19 Noroeste 0 -- -- 85
2017-09-21 02:00:00 21.5 9 Noroeste 19 Noroeste 0 -- -- 87
2017-09-21 01:00:00 21.4 10 Noroeste 18 Noroeste 0 -- -- 86
2017-09-21 00:00:00 21.8 9 Noroeste 15 Oeste 0 -- -- 85
2017-09-20 23:00:00 21.7 8 Noroeste 15 Oeste 0 -- -- 85
2017-09-20 22:00:00 21.7 8 Noroeste 17 Norte 0 -- -- 84
2017-09-20 21:00:00 21.9 6 Noroeste 15 Noroeste 0 -- -- 82
2017-09-20 20:00:00 22.2 8 Noroeste 17 Noroeste 0 -- -- 81
2017-09-20 19:00:00 23.1 7 Noroeste 14 Noroeste 0 -- -- 76
2017-09-20 18:00:00 24.3 9 Noroeste 17 Noroeste 0 -- -- 72
2017-09-20 17:00:00 24.3 6 Noroeste 16 Norte 0 -- -- 73
2017-09-20 16:00:00 24.8 11 Norte 20 Norte 0 -- -- 72
2017-09-20 15:00:00 24.4 9 Norte 14 Norte 0 -- -- 74
2017-09-20 14:00:00 24.5 8 Norte 13 Norte 0 -- -- 73
2017-09-20 13:00:00 24.2 8 Nordeste 14 Norte 0 -- -- 75
2017-09-20 12:00:00 23.9 7 Norte 14 Nordeste 0 -- -- 79
2017-09-20 11:00:00 23.4 6 Norte 12 Norte 0 -- -- 78
2017-09-20 10:00:00 22.8 8 Norte 15 Norte 0 -- -- 82
2017-09-20 09:00:00 21.8 6 Nordeste 13 Norte 0 -- -- 88
2017-09-20 08:00:00 20.8 0 Calma 8 Norte 0 -- -- 88
2017-09-20 07:00:00 20.8 3 Nordeste 8 Nordeste 0 -- -- 88
2017-09-20 06:00:00 20.5 2 Este 6 Este 0 -- -- 90
2017-09-20 05:00:00 20.5 3 Este 5 Este 0 -- -- 91
2017-09-20 04:00:00 20.1 3 Sudeste 6 Sudeste 0 -- -- 91
2017-09-20 03:00:00 20.3 4 Sudeste 10 Este 0 -- -- 91
2017-09-20 02:00:00 20.4 4 Este 8 Este 0 -- -- 91
2017-09-20 01:00:00 20.6 4 Sudeste 6 Sudeste 0 -- -- 91
2017-09-20 00:00:00 21.1 4 Este 8 Este 0 -- -- 88
2017-09-19 23:00:00 21.4 3 Este 6 Nordeste 0 -- -- 87
2017-09-19 22:00:00 21.6 4 Nordeste 8 Nordeste 0 -- -- 86
2017-09-19 21:00:00 21.6 4 Nordeste 8 Norte 0 -- -- 84
2017-09-19 20:00:00 22 4 Nordeste 11 Nordeste 0 -- -- 83
2017-09-19 19:00:00 22.6 6 Nordeste 13 Nordeste 0 -- -- 80
2017-09-19 18:00:00 23.3 8 Nordeste 16 Nordeste 0 -- -- 77
2017-09-19 17:00:00 23.5 13 Nordeste 18 Este 0 -- -- 75
2017-09-19 16:00:00 23.9 12 Nordeste 17 Este 0 -- -- 72
2017-09-19 15:00:00 24.3 10 Nordeste 18 Este 0 -- -- 71
2017-09-19 14:00:00 23.8 13 Nordeste 20 Este 0 -- -- 73
2017-09-19 13:00:00 23.6 11 Nordeste 18 Nordeste 0 -- -- 73
2017-09-19 12:00:00 23.1 10 Nordeste 16 Este 0 -- -- 76
2017-09-19 11:00:00 22.4 10 Nordeste 15 Nordeste 0 -- -- 78
2017-09-19 10:00:00 21.8 7 Este 12 Nordeste 0 -- -- 80
2017-09-19 09:00:00 21.2 8 Este 13 Este 0 -- -- 82
2017-09-19 08:00:00 21 5 Este 13 Este 0 -- -- 84
2017-09-19 07:00:00 20.9 8 Este 15 Este 0 -- -- 84
2017-09-19 06:00:00 20.8 9 Este 17 Este 0 -- -- 84
2017-09-19 05:00:00 20.8 9 Este 17 Este 0 -- -- 85
2017-09-19 04:00:00 21 10 Este 16 Este 0 -- -- 85
2017-09-19 03:00:00 20.9 8 Este 16 Este 0 -- -- 85
2017-09-19 02:00:00 21 9 Este 16 Este 0 -- -- 85
2017-09-19 01:00:00 21.1 10 Este 21 Este 0 -- -- 86
2017-09-19 00:00:00 21.3 11 Este 19 Este 0 -- -- 85
2017-09-18 23:00:00 21.4 9 Este 18 Este 0 -- -- 85
2017-09-18 22:00:00 21.4 9 Este 22 Este 0 -- -- 86
2017-09-18 21:00:00 21.6 14 Este 23 Este 0 -- -- 84
2017-09-18 20:00:00 21.9 14 Este 22 Este 0 -- -- 83
2017-09-18 19:00:00 22.8 10 Este 20 Este 0 -- -- 81
2017-09-18 18:00:00 23.2 12 Nordeste 21 Nordeste 0 -- -- 80
2017-09-18 17:00:00 23.6 13 Nordeste 22 Nordeste 0 -- -- 77
2017-09-18 16:00:00 23.8 15 Nordeste 25 Este 0 -- -- 75
2017-09-18 15:00:00 24.6 16 Este 27 Este 0 -- -- 70
2017-09-18 14:00:00 24.1 18 Este 28 Este 0 -- -- 72
2017-09-18 13:00:00 23.6 17 Este 28 Este 0 -- -- 73
2017-09-18 12:00:00 23 16 Este 24 Este 0 -- -- 76
2017-09-18 11:00:00 22.5 11 Este 22 Este 0 -- -- 78
2017-09-18 10:00:00 21.7 11 Este 21 Este 0 -- -- 80
2017-09-18 09:00:00 21.2 10 Este 18 Este 0 -- -- 82
2017-09-18 08:00:00 21.1 11 Este 18 Este 0 -- -- 81
2017-09-18 07:00:00 21.1 10 Este 17 Este 0 -- -- 82
2017-09-18 06:00:00 21 11 Este 18 Este 0 -- -- 83
2017-09-18 05:00:00 21.1 9 Este 18 Este 0 -- -- 83
2017-09-18 04:00:00 21.1 10 Este 19 Este 0 -- -- 82
2017-09-18 03:00:00 21.1 10 Este 17 Este 0 -- -- 83
2017-09-18 02:00:00 21.2 9 Este 15 Este 0 -- -- 83
2017-09-18 01:00:00 21.2 9 Este 18 Este 0 -- -- 83
2017-09-18 00:00:00 21.4 10 Este 18 Este 0 -- -- 82
2017-09-17 23:00:00 21.5 12 Este 19 Este 0 -- -- 84
2017-09-17 22:00:00 21.6 10 Este 19 Este 0 -- -- 83
2017-09-17 21:00:00 21.6 9 Este 18 Nordeste 0 -- -- 83
2017-09-17 20:00:00 21.8 9 Nordeste 19 Nordeste 0 -- -- 83
2017-09-17 19:00:00 22.2 11 Nordeste 21 Nordeste 0 -- -- 81
2017-09-17 18:00:00 22.7 10 Nordeste 19 Nordeste 0 -- -- 79
2017-09-17 17:00:00 23.4 12 Nordeste 20 Este 0 -- -- 75
2017-09-17 16:00:00 23.7 13 Nordeste 21 Nordeste 0 -- -- 73
2017-09-17 15:00:00 24 12 Nordeste 23 Nordeste 0 -- -- 74
2017-09-17 14:00:00 23.7 14 Nordeste 24 Nordeste 0 -- -- 74
2017-09-17 13:00:00 23.2 13 Nordeste 20 Nordeste 0 -- -- 76
2017-09-17 12:00:00 23.2 13 Nordeste 21 Este 0 -- -- 76
2017-09-17 11:00:00 22.9 13 Este 21 Este 0 -- -- 76
2017-09-17 10:00:00 21.9 11 Este 20 Este 0 -- -- 79
2017-09-17 09:00:00 21.4 11 Este 21 Este 0 -- -- 78
2017-09-17 08:00:00 21.1 10 Este 21 Este 0 -- -- 81
2017-09-17 07:00:00 21.1 8 Este 19 Este 0 -- -- 82
2017-09-17 06:00:00 21.2 9 Este 18 Este 0 -- -- 84
2017-09-17 05:00:00 21.2 10 Este 19 Este 0 -- -- 83
2017-09-17 04:00:00 21.2 10 Este 20 Nordeste 0 -- -- 84
2017-09-17 03:00:00 21.2 10 Este 19 Este 0 -- -- 85
2017-09-17 02:00:00 21.3 11 Este 19 Este 0 -- -- 84
2017-09-17 01:00:00 21.4 10 Este 21 Este 0 -- -- 84
2017-09-17 00:00:00 21.5 11 Este 21 Este 0 -- -- 85
2017-09-16 23:00:00 21.6 12 Este 21 Este 0 -- -- 85
2017-09-16 22:00:00 21.7 9 Este 18 Este 0 -- -- 86
2017-09-16 21:00:00 21.8 8 Este 18 Este 0 -- -- 85
2017-09-16 20:00:00 22 9 Este 18 Nordeste 0 -- -- 84
2017-09-16 19:00:00 22.4 10 Nordeste 19 Nordeste 0 -- -- 82
2017-09-16 18:00:00 23 11 Nordeste 21 Nordeste 0 -- -- 80
2017-09-16 17:00:00 23 12 Nordeste 20 Nordeste 0 -- -- 80
2017-09-16 16:00:00 23.8 11 Nordeste 20 Nordeste 0 -- -- 77
2017-09-16 15:00:00 23.4 13 Nordeste 23 Nordeste 0 -- -- 79
2017-09-16 14:00:00 23.2 11 Nordeste 22 Este 0 -- -- 79
2017-09-16 13:00:00 23.4 11 Nordeste 23 Nordeste 0 -- -- 80
2017-09-16 12:00:00 23.5 14 Nordeste 23 Nordeste 0 -- -- 79
2017-09-16 11:00:00 22.9 10 Nordeste 20 Este 0 -- -- 83
2017-09-16 10:00:00 22.8 10 Este 22 Nordeste 0 -- -- 83
2017-09-16 09:00:00 21.8 10 Este 20 Este 0 -- -- 87
2017-09-16 08:00:00 21.6 11 Este 21 Este 0 -- -- 89
2017-09-16 07:00:00 21.7 8 Este 16 Nordeste 0 -- -- 89
2017-09-16 06:00:00 21.7 10 Este 19 Este 0 -- -- 90
2017-09-16 05:00:00 21.8 11 Este 19 Este 0 -- -- 91
2017-09-16 04:00:00 21.9 6 Nordeste 21 Este 0 -- -- 90
2017-09-16 03:00:00 22 9 Este 19 Nordeste 0 -- -- 90
2017-09-16 02:00:00 22.1 8 Nordeste 20 Este 0 -- -- 90
2017-09-16 01:00:00 22.2 10 Este 20 Nordeste 0 -- -- 90
2017-09-16 00:00:00 22.4 9 Este 17 Este 0 -- -- 89
2017-09-15 23:00:00 22.4 9 Este 17 Este 0 -- -- 89
2017-09-15 22:00:00 22.5 8 Este 16 Este 0 -- -- 90
2017-09-15 21:00:00 22.7 8 Este 15 Nordeste 0 -- -- 89
2017-09-15 20:00:00 23 6 Nordeste 14 Nordeste 0 -- -- 87
2017-09-15 19:00:00 23.5 6 Nordeste 14 Nordeste 0 -- -- 85
2017-09-15 18:00:00 23.9 9 Nordeste 29 Este 0 -- -- 84
2017-09-15 17:00:00 24.9 16 Este 27 Este 0 -- -- 78
2017-09-15 16:00:00 24.6 13 Este 22 Este 0 -- -- 81
2017-09-15 15:00:00 24.3 6 Este 12 Nordeste 0 -- -- 82
2017-09-15 14:00:00 24.5 8 Norte 14 Norte 0 -- -- 82
2017-09-15 13:00:00 24.5 6 Nordeste 15 Este 0 -- -- 83
2017-09-15 12:00:00 24.2 8 Nordeste 15 Este 0 -- -- 83
2017-09-15 11:00:00 24.3 8 Este 14 Este 0 -- -- 83
2017-09-15 10:00:00 23.1 7 Este 12 Este 0 -- -- 89
2017-09-15 09:00:00 22.5 3 Este 7 Nordeste 0 -- -- 91
2017-09-15 08:00:00 22 4 Sudeste 9 Sudeste 0 -- -- 91
2017-09-15 07:00:00 21.4 0 Calma 4 Sudeste 0 -- -- 91
2017-09-15 06:00:00 22 0 Calma 11 Oeste 0 -- -- 90
2017-09-15 05:00:00 21.8 3 Oeste 5 Noroeste 0 -- -- 91
2017-09-15 04:00:00 22.4 2 Noroeste 12 Sur 0 -- -- 90
2017-09-15 03:00:00 22.4 3 Noroeste 6 Sudeste 0 -- -- 92
2017-09-15 02:00:00 22.6 0 Calma 5 Norte 0 -- -- 91
2017-09-15 01:00:00 22.8 2 Nordeste 6 Este 0 -- -- 89
2017-09-15 00:00:00 23.4 4 Norte 13 Sudeste 0 -- -- 84
2017-09-14 23:00:00 22.8 6 Este 9 Este 0 -- -- 90
2017-09-14 22:00:00 23 5 Este 8 Este 0 -- -- 90
2017-09-14 21:00:00 22.9 3 Este 7 Este 0 -- -- 89
2017-09-14 20:00:00 22.9 3 Nordeste 8 Norte 0 -- -- 89
2017-09-14 19:00:00 23.5 6 Norte 12 Norte 0 -- -- 87
2017-09-14 18:00:00 24.1 6 Norte 14 Norte 0 -- -- 84
2017-09-14 17:00:00 24.2 5 Norte 12 Norte 0 -- -- 83
2017-09-14 16:00:00 24.6 7 Norte 13 Norte 0 -- -- 81
2017-09-14 15:00:00 24.8 8 Norte 14 Norte 0 -- -- 80
2017-09-14 14:00:00 25.2 8 Noroeste 15 Norte 0 -- -- 79
2017-09-14 13:00:00 24.7 8 Noroeste 15 Noroeste 0 -- -- 81
2017-09-14 12:00:00 24.2 6 Noroeste 15 Norte 0 -- -- 81
2017-09-14 11:00:00 24 7 Noroeste 14 Noroeste 0 -- -- 83
2017-09-14 10:00:00 23.3 7 Noroeste 12 Noroeste 0 -- -- 86
2017-09-14 09:00:00 22.2 6 Oeste 10 Oeste 0 -- -- 92
2017-09-14 08:00:00 21.6 6 Oeste 10 Noroeste 0 -- -- 94
2017-09-14 07:00:00 21.2 2 Sudoeste 7 Noroeste 0 -- -- 93
2017-09-14 06:00:00 21.4 3 Oeste 8 Oeste 0 -- -- 93
2017-09-14 05:00:00 21.3 2 Oeste 6 Oeste 0 -- -- 92
2017-09-14 04:00:00 21.1 3 Oeste 6 Oeste 0 -- -- 93
2017-09-14 03:00:00 20.9 0 Calma 8 Este 0 -- -- 91
2017-09-14 02:00:00 21.5 4 Este 8 Este 0 -- -- 91
2017-09-14 01:00:00 22.1 4 Este 6 Nordeste 0 -- -- 90
2017-09-14 00:00:00 21.7 3 Este 5 Este 0 -- -- 92
2017-09-13 23:00:00 21.8 3 Este 9 Este 0 -- -- 88
2017-09-13 22:00:00 22.1 4 Este 8 Este 0 -- -- 88
2017-09-13 21:00:00 22.4 2 Este 8 Nordeste 0 -- -- 86
2017-09-13 20:00:00 22.9 4 Nordeste 11 Nordeste 0 -- -- 83
2017-09-13 19:00:00 23.7 6 Nordeste 14 Nordeste 0 -- -- 80
2017-09-13 18:00:00 24.5 8 Nordeste 12 Nordeste 0 -- -- 78
2017-09-13 17:00:00 25.1 7 Nordeste 13 Este 0 -- -- 74
2017-09-13 16:00:00 24.8 10 Nordeste 18 Nordeste 0 -- -- 74
2017-09-13 15:00:00 25 13 Nordeste 22 Este 0 -- -- 72
2017-09-13 14:00:00 25.2 12 Nordeste 18 Nordeste 0 -- -- 71
2017-09-13 13:00:00 25 7 Nordeste 14 Nordeste 0 -- -- 72
2017-09-13 12:00:00 24.4 8 Nordeste 13 Nordeste 0 -- -- 73
2017-09-13 11:00:00 23.7 6 Nordeste 12 Nordeste 0 -- -- 76
2017-09-13 10:00:00 23.3 5 Nordeste 9 Este 0 -- -- 76
2017-09-13 09:00:00 21.5 0 Calma 5 Sur 0 -- -- 84
2017-09-13 08:00:00 18.6 2 Sur 8 Sudoeste 0 -- -- 90
2017-09-13 07:00:00 19.3 7 Sudoeste 9 Sudoeste 0 -- -- 86
2017-09-13 06:00:00 19 4 Sudoeste 7 Sudoeste 0 -- -- 90
2017-09-13 05:00:00 19.5 4 Sudoeste 6 Sudoeste 0 -- -- 90
2017-09-13 04:00:00 20.4 2 Oeste 5 Sudoeste 0 -- -- 88
2017-09-13 03:00:00 20.9 0 Calma 6 Sudoeste 0 -- -- 88
2017-09-13 02:00:00 20.6 2 Sur 5 Este 0 -- -- 90
2017-09-13 01:00:00 20.7 0 Calma 6 Sudeste 0 -- -- 88
2017-09-13 00:00:00 21.1 0 Calma 5 Noroeste 0 -- -- 87
2017-09-12 23:00:00 21.3 3 Oeste 8 Noroeste 0 -- -- 86
2017-09-12 22:00:00 21.8 4 Noroeste 12 Noroeste 0 -- -- 84
2017-09-12 21:00:00 22.2 4 Norte 11 Norte 0 -- -- 84
2017-09-12 20:00:00 22.6 4 Noroeste 9 Noroeste 0 -- -- 81
2017-09-12 19:00:00 23.5 5 Norte 11 Norte 0 -- -- 76
2017-09-12 18:00:00 23.9 6 Norte 15 Norte 0 -- -- 75
2017-09-12 17:00:00 24.5 8 Noroeste 16 Noroeste 0 -- -- 73
2017-09-12 16:00:00 24.9 7 Noroeste 17 Noroeste 0 -- -- 71
2017-09-12 15:00:00 24.5 8 Norte 13 Norte 0 -- -- 70
2017-09-12 14:00:00 24.4 8 Noroeste 17 Noroeste 0 -- -- 72
2017-09-12 13:00:00 24.3 7 Norte 14 Norte 0 -- -- 73
2017-09-12 12:00:00 23.8 8 Noroeste 14 Noroeste 0 -- -- 74
2017-09-12 11:00:00 23.3 6 Noroeste 13 Noroeste 0 -- -- 76
2017-09-12 10:00:00 21.9 6 Noroeste 14 Noroeste 0 -- -- 79
2017-09-12 09:00:00 21.1 5 Oeste 13 Oeste 0 -- -- 84
2017-09-12 08:00:00 19.9 6 Oeste 12 Sudoeste 0 -- -- 86
2017-09-12 07:00:00 19.8 6 Oeste 11 Oeste 0 -- -- 88
2017-09-12 06:00:00 20 6 Oeste 12 Oeste 0 -- -- 88
2017-09-12 05:00:00 20 6 Oeste 11 Oeste 0 -- -- 88
2017-09-12 04:00:00 20.4 6 Oeste 10 Oeste 0 -- -- 89
2017-09-12 03:00:00 20.6 4 Oeste 8 Oeste 0 -- -- 89
2017-09-12 02:00:00 21.1 4 Oeste 8 Oeste 0 -- -- 87
2017-09-12 01:00:00 21.2 4 Oeste 8 Norte 0 -- -- 88
2017-09-12 00:00:00 21.4 4 Norte 13 Norte 0 -- -- 88
2017-09-11 23:00:00 21.4 2 Norte 11 Oeste 0 -- -- 88
2017-09-11 22:00:00 21.2 6 Oeste 15 Sudoeste 0 -- -- 87
2017-09-11 21:00:00 21 10 Oeste 18 Oeste 0 -- -- 93
2017-09-11 20:00:00 21.8 8 Oeste 14 Noroeste 0.8 -- -- 87
2017-09-11 19:00:00 22.5 9 Oeste 14 Oeste 0 -- -- 84
2017-09-11 18:00:00 22.2 9 Oeste 22 Noroeste 0 -- -- 87
2017-09-11 17:00:00 22.8 9 Norte 23 Norte 0 -- -- 87
2017-09-11 16:00:00 23.8 9 Noroeste 19 Noroeste 0 -- -- 81
2017-09-11 15:00:00 23.9 10 Noroeste 21 Noroeste 0.6 -- -- 84
2017-09-11 14:00:00 25 10 Noroeste 20 Noroeste 0 -- -- 77
2017-09-11 13:00:00 24.3 11 Noroeste 18 Noroeste 0 -- -- 80
2017-09-11 12:00:00 24.2 10 Noroeste 19 Noroeste 0 -- -- 78
2017-09-11 11:00:00 23.5 6 Noroeste 14 Oeste 0 -- -- 80
2017-09-11 10:00:00 22 5 Oeste 13 Sudoeste 0 -- -- 84
2017-09-11 09:00:00 20.4 6 Oeste 10 Oeste 0 -- -- 92
2017-09-11 08:00:00 19.8 5 Nordeste 22 Nordeste 0.2 -- -- 94
2017-09-11 07:00:00 20.9 0 Calma 6 Oeste 0 -- -- 90
2017-09-11 06:00:00 20.9 5 Oeste 10 Noroeste 0 -- -- 91
2017-09-11 05:00:00 20.8 3 Noroeste 13 Noroeste 0 -- -- 91
2017-09-11 04:00:00 20.2 4 Oeste 27 Norte 1 -- -- 93
2017-09-11 03:00:00 20.5 5 Oeste 12 Norte 0.4 -- -- 92
2017-09-11 02:00:00 20.4 8 Norte 27 Oeste 0.2 -- -- 90
2017-09-11 01:00:00 21.2 5 Oeste 12 Oeste 0.4 -- -- 90
2017-09-11 00:00:00 21.1 5 Oeste 9 Oeste 0 -- -- 89
2017-09-10 23:00:00 20.9 5 Norte 22 Norte 0.4 -- -- 91
2017-09-10 22:00:00 22 4 Noroeste 10 Noroeste 0 -- -- 83
2017-09-10 21:00:00 22.2 4 Noroeste 13 Norte 0 -- -- 83
2017-09-10 20:00:00 22.8 6 Noroeste 12 Noroeste 0 -- -- 77
2017-09-10 19:00:00 23.5 5 Norte 14 Norte 0 -- -- 73
2017-09-10 18:00:00 24.6 3 Nordeste 13 Noroeste 0 -- -- 64
2017-09-10 17:00:00 24.8 6 Norte 13 Noroeste 0 -- -- 66
2017-09-10 16:00:00 24.6 7 Nordeste 19 Noroeste 0 -- -- 72
2017-09-10 15:00:00 25 11 Noroeste 21 Noroeste 0 -- -- 69
2017-09-10 14:00:00 25.1 9 Noroeste 17 Oeste 0 -- -- 64
2017-09-10 13:00:00 24.9 8 Noroeste 15 Norte 0 -- -- 60
2017-09-10 12:00:00 23.7 8 Norte 15 Norte 0 -- -- 69
2017-09-10 11:00:00 23.3 4 Nordeste 9 Nordeste 0 -- -- 68
2017-09-10 10:00:00 22.4 4 Norte 18 Nordeste 0 -- -- 71
2017-09-10 09:00:00 21.6 6 Nordeste 13 Este 0 -- -- 77
2017-09-10 08:00:00 21 0 Calma 8 Nordeste 0 -- -- 78
2017-09-10 07:00:00 21.2 7 Nordeste 20 Nordeste 0 -- -- 77
2017-09-10 06:00:00 21.2 3 Norte 11 Norte 0 -- -- 80
2017-09-10 05:00:00 21.3 6 Nordeste 14 Norte 0 -- -- 80
2017-09-10 04:00:00 21.2 4 Norte 13 Norte 0 -- -- 81
2017-09-10 03:00:00 21.2 4 Norte 10 Norte 0 -- -- 82
2017-09-10 02:00:00 21.4 4 Nordeste 11 Norte 0 -- -- 82
2017-09-10 01:00:00 21.4 2 Norte 8 Norte 0 -- -- 83
2017-09-10 00:00:00 21.5 4 Nordeste 11 Noroeste 0 -- -- 83
2017-09-09 23:00:00 21.8 6 Norte 13 Norte 0 -- -- 83
2017-09-09 22:00:00 22 6 Norte 14 Norte 0 -- -- 83
2017-09-09 21:00:00 22.2 4 Norte 10 Noroeste 0 -- -- 83
2017-09-09 20:00:00 22.6 4 Norte 12 Norte 0 -- -- 81
2017-09-09 19:00:00 22.9 6 Norte 12 Norte 0 -- -- 82
2017-09-09 18:00:00 23.4 4 Norte 14 Norte 0 -- -- 79
2017-09-09 17:00:00 23.9 5 Noroeste 14 Norte 0 -- -- 77
2017-09-09 16:00:00 24.2 8 Norte 14 Norte 0 -- -- 77
2017-09-09 15:00:00 24.7 7 Norte 12 Nordeste 0 -- -- 74
2017-09-09 14:00:00 24.5 7 Norte 13 Norte 0 -- -- 74
2017-09-09 13:00:00 24.2 6 Norte 13 Norte 0 -- -- 77
2017-09-09 12:00:00 23.9 6 Norte 10 Norte 0 -- -- 77
2017-09-09 11:00:00 23.4 4 Norte 9 Norte 0 -- -- 78
2017-09-09 10:00:00 22.7 4 Norte 9 Norte 0 -- -- 81
2017-09-09 09:00:00 22 2 Norte 7 Norte 0 -- -- 82
2017-09-09 08:00:00 21.7 3 Norte 8 Norte 0 -- -- 84
2017-09-09 07:00:00 21.7 3 Noroeste 7 Oeste 0 -- -- 85
2017-09-09 06:00:00 21.6 2 Noroeste 6 Noroeste 0 -- -- 85
2017-09-09 05:00:00 21.6 3 Noroeste 9 Norte 0 -- -- 85
2017-09-09 04:00:00 21.7 3 Norte 9 Noroeste 0 -- -- 85
2017-09-09 03:00:00 21.8 2 Norte 6 Noroeste 0 -- -- 84
2017-09-09 02:00:00 21.9 0 Calma 10 Oeste 0 -- -- 83
2017-09-09 01:00:00 22 3 Noroeste 10 Noroeste 0 -- -- 83
2017-09-09 00:00:00 22 4 Noroeste 12 Noroeste 0 -- -- 82
2017-09-08 23:00:00 22.1 6 Noroeste 14 Noroeste 0 -- -- 82
2017-09-08 22:00:00 22.2 5 Noroeste 13 Oeste 0 -- -- 84
2017-09-08 21:00:00 22.3 7 Noroeste 13 Noroeste 0 -- -- 83
2017-09-08 20:00:00 22.5 8 Noroeste 14 Noroeste 0 -- -- 82
2017-09-08 19:00:00 22.8 7 Noroeste 15 Noroeste 0 -- -- 82
2017-09-08 18:00:00 23.3 7 Noroeste 13 Noroeste 0 -- -- 79
2017-09-08 17:00:00 24 7 Noroeste 16 Norte 0 -- -- 78
2017-09-08 16:00:00 24.8 9 Norte 18 Norte 0 -- -- 74
2017-09-08 15:00:00 25.2 5 Norte 18 Noroeste 0 -- -- 73
2017-09-08 14:00:00 24.1 7 Norte 12 Norte 0 -- -- 75
2017-09-08 13:00:00 23.8 6 Norte 12 Noroeste 0 -- -- 78
2017-09-08 12:00:00 23.4 6 Norte 10 Norte 0 -- -- 80
2017-09-08 11:00:00 22.8 5 Nordeste 9 Norte 0 -- -- 80
2017-09-08 10:00:00 22.2 4 Norte 8 Norte 0 -- -- 82
2017-09-08 09:00:00 21.8 4 Norte 10 Norte 0 -- -- 83
2017-09-08 08:00:00 21.6 3 Norte 8 Nordeste 0 -- -- 83
2017-09-08 07:00:00 21.6 2 Norte 7 Norte 0 -- -- 85
2017-09-08 06:00:00 21.6 4 Noroeste 8 Norte 0 -- -- 85
2017-09-08 05:00:00 21.5 3 Noroeste 8 Noroeste 0 -- -- 84
2017-09-08 04:00:00 21.7 4 Noroeste 7 Oeste 0 -- -- 84
2017-09-08 03:00:00 21.7 3 Noroeste 8 Norte 0 -- -- 83
2017-09-08 02:00:00 21.8 2 Noroeste 6 Norte 0 -- -- 84
2017-09-08 01:00:00 21.9 0 Calma 12 Norte 0 -- -- 83
2017-09-08 00:00:00 22 4 Noroeste 9 Norte 0 -- -- 83
2017-09-07 23:00:00 22.1 3 Noroeste 15 Norte 0 -- -- 82
2017-09-07 22:00:00 22.3 5 Noroeste 11 Nordeste 0 -- -- 84
2017-09-07 21:00:00 22.4 4 Noroeste 10 Noroeste 0 -- -- 84
2017-09-07 20:00:00 22.6 5 Noroeste 11 Noroeste 0 -- -- 83
2017-09-07 19:00:00 22.9 6 Norte 12 Noroeste 0 -- -- 82
2017-09-07 18:00:00 23.4 6 Norte 14 Norte 0 -- -- 81
2017-09-07 17:00:00 23.5 7 Noroeste 12 Oeste 0 -- -- 79
2017-09-07 16:00:00 23.9 5 Noroeste 17 Noroeste 0 -- -- 78
2017-09-07 15:00:00 24.3 6 Norte 15 Noroeste 0 -- -- 77
2017-09-07 14:00:00 24.5 6 Noroeste 13 Noroeste 0 -- -- 75
2017-09-07 13:00:00 23.8 8 Noroeste 17 Norte 0 -- -- 79
2017-09-07 12:00:00 23.1 6 Norte 15 Norte 0 -- -- 82
2017-09-07 11:00:00 22.8 5 Noroeste 12 Noroeste 0 -- -- 83
2017-09-07 10:00:00 22.4 4 Norte 11 Norte 0 -- -- 86
2017-09-07 09:00:00 22.2 4 Norte 9 Norte 0 -- -- 86
2017-09-07 08:00:00 22 8 Norte 18 Norte 0 -- -- 88
2017-09-07 07:00:00 22 5 Noroeste 14 Noroeste 0 -- -- 89
2017-09-07 06:00:00 22.1 6 Noroeste 12 Noroeste 0 -- -- 88
2017-09-07 05:00:00 22 6 Noroeste 11 Noroeste 0 -- -- 88
2017-09-07 04:00:00 22.1 5 Noroeste 12 Oeste 0 -- -- 87
2017-09-07 03:00:00 22 7 Noroeste 13 Noroeste 0 -- -- 85
2017-09-07 02:00:00 22.1 5 Oeste 11 Noroeste 0 -- -- 85
2017-09-07 01:00:00 22.1 3 Noroeste 12 Noroeste 0 -- -- 84
2017-09-07 00:00:00 22.5 7 Noroeste 15 Noroeste 0 -- -- 78
2017-09-06 23:00:00 22.3 5 Noroeste 13 Noroeste 0 -- -- 79
2017-09-06 22:00:00 22.5 6 Noroeste 19 Oeste 0 -- -- 79
2017-09-06 21:00:00 22.4 9 Noroeste 19 Noroeste 0 -- -- 79
2017-09-06 20:00:00 22.5 10 Noroeste 19 Oeste 0 -- -- 78
2017-09-06 19:00:00 22.8 12 Noroeste 22 Noroeste 0 -- -- 79
2017-09-06 18:00:00 23.6 9 Noroeste 18 Noroeste 0 -- -- 79
2017-09-06 17:00:00 24 9 Noroeste 21 Noroeste 0 -- -- 74
2017-09-06 16:00:00 24.2 14 Noroeste 21 Noroeste 0 -- -- 74
2017-09-06 15:00:00 24.5 12 Noroeste 20 Oeste 0 -- -- 71
2017-09-06 14:00:00 24 10 Noroeste 19 Noroeste 0 -- -- 72
2017-09-06 13:00:00 24.1 8 Norte 15 Noroeste 0 -- -- 73
2017-09-06 12:00:00 23.3 8 Norte 22 Norte 0 -- -- 75
2017-09-06 11:00:00 22.5 8 Noroeste 17 Noroeste 0 -- -- 79
2017-09-06 10:00:00 22.3 5 Noroeste 18 Noroeste 0 -- -- 76
2017-09-06 09:00:00 21.9 6 Norte 17 Norte 0 -- -- 81
2017-09-06 08:00:00 21.9 7 Noroeste 16 Norte 0 -- -- 79
2017-09-06 07:00:00 21.9 6 Noroeste 15 Noroeste 0 -- -- 79
2017-09-06 06:00:00 21.9 5 Noroeste 15 Norte 0 -- -- 81
2017-09-06 05:00:00 22 3 Noroeste 23 Norte 0 -- -- 81
2017-09-06 04:00:00 22 5 Noroeste 13 Noroeste 0 -- -- 81
2017-09-06 03:00:00 22.1 5 Noroeste 16 Noroeste 0 -- -- 82
2017-09-06 02:00:00 22 7 Noroeste 16 Norte 0 -- -- 82
2017-09-06 01:00:00 22.1 8 Noroeste 14 Norte 0 -- -- 84
2017-09-06 00:00:00 22.4 4 Noroeste 10 Oeste 0 -- -- 85
2017-09-05 23:00:00 22.6 4 Noroeste 10 Noroeste 0 -- -- 83
2017-09-05 22:00:00 22.7 6 Norte 12 Norte 0 -- -- 81
2017-09-05 21:00:00 22.8 6 Nordeste 18 Nordeste 0 -- -- 78
2017-09-05 20:00:00 23.1 6 Nordeste 14 Norte 0 -- -- 78
2017-09-05 19:00:00 23.4 6 Norte 11 Norte 0 -- -- 78
2017-09-05 18:00:00 23.8 4 Nordeste 11 Norte 0 -- -- 75
2017-09-05 17:00:00 24 5 Norte 10 Nordeste 0 -- -- 75
2017-09-05 16:00:00 24.3 6 Norte 13 Nordeste 0 -- -- 71
2017-09-05 15:00:00 24.3 7 Norte 13 Nordeste 0 -- -- 72
2017-09-05 14:00:00 24.2 6 Nordeste 17 Nordeste 0 -- -- 72
2017-09-05 13:00:00 24.1 6 Norte 15 Nordeste 0 -- -- 70
2017-09-05 12:00:00 23.7 8 Nordeste 17 Norte 0 -- -- 73
2017-09-05 11:00:00 22.8 5 Norte 15 Norte 0 -- -- 75
2017-09-05 10:00:00 22.4 6 Nordeste 15 Nordeste 0 -- -- 79
2017-09-05 09:00:00 22 6 Norte 14 Norte 0 -- -- 82
2017-09-05 08:00:00 21.7 5 Nordeste 11 Norte 0 -- -- 85
2017-09-05 07:00:00 21.5 4 Norte 9 Norte 0 -- -- 88
2017-09-05 06:00:00 21.2 3 Oeste 6 Oeste 0 -- -- 85
2017-09-05 05:00:00 21.9 4 Sudeste 14 Sudeste 0 -- -- 78
2017-09-05 04:00:00 22.9 8 Sudeste 22 Sudeste 0 -- -- 62
2017-09-05 03:00:00 23.3 8 Sudeste 23 Sur 0 -- -- 60
2017-09-05 02:00:00 23.5 8 Sudeste 25 Sudeste 0 -- -- 55
2017-09-05 01:00:00 23.3 9 Sudeste 29 Sudeste 0 -- -- 59
2017-09-05 00:00:00 23.4 8 Sudeste 22 Sudeste 0 -- -- 59
2017-09-04 23:00:00 23.2 8 Sudeste 16 Este 0 -- -- 66
2017-09-04 22:00:00 22.6 5 Sudeste 13 Sur 0 -- -- 72
2017-09-04 21:00:00 22.8 3 Sudoeste 7 Sudeste 0 -- -- 82
2017-09-04 20:00:00 23.3 2 Noroeste 8 Norte 0 -- -- 81
2017-09-04 19:00:00 24.1 4 Nordeste 9 Noroeste 0 -- -- 79
2017-09-04 18:00:00 24.6 4 Nordeste 12 Norte 0 -- -- 79
2017-09-04 17:00:00 24.7 5 Norte 12 Nordeste 0 -- -- 79
2017-09-04 16:00:00 25 7 Nordeste 14 Nordeste 0 -- -- 78
2017-09-04 15:00:00 25.3 8 Nordeste 14 Este 0 -- -- 75
2017-09-04 14:00:00 25.1 6 Nordeste 15 Nordeste 0 -- -- 76
2017-09-04 13:00:00 24.5 8 Este 14 Este 0 -- -- 76
2017-09-04 12:00:00 24.4 8 Nordeste 12 Nordeste 0 -- -- 77
2017-09-04 11:00:00 23.3 5 Nordeste 10 Este 0 -- -- 79
2017-09-04 10:00:00 22.9 4 Nordeste 11 Nordeste 0 -- -- 82
2017-09-04 09:00:00 22.5 4 Nordeste 13 Nordeste 0 -- -- 82
2017-09-04 08:00:00 22.3 3 Nordeste 11 Nordeste 0 -- -- 82
2017-09-04 07:00:00 22.3 2 Sudeste 10 Nordeste 0 -- -- 84
2017-09-04 06:00:00 22.2 4 Sudeste 7 Sudeste 0 -- -- 84
2017-09-04 05:00:00 22.1 2 Este 7 Este 0 -- -- 85
2017-09-04 04:00:00 22.1 2 Nordeste 6 Este 0 -- -- 83
2017-09-04 03:00:00 22.1 2 Nordeste 6 Nordeste 0 -- -- 83
2017-09-04 02:00:00 22.1 3 Norte 9 Norte 0 -- -- 84
2017-09-04 01:00:00 22.1 2 Sur 6 Nordeste 0 -- -- 83
2017-09-04 00:00:00 22.3 0 Calma 6 Norte 0 -- -- 82
2017-09-03 23:00:00 22.4 4 Norte 10 Norte 0 -- -- 82
2017-09-03 22:00:00 22.5 5 Norte 12 Norte 0 -- -- 80
2017-09-03 21:00:00 22.7 4 Nordeste 11 Norte 0 -- -- 80
2017-09-03 20:00:00 22.9 3 Nordeste 9 Nordeste 0 -- -- 78
2017-09-03 19:00:00 23.2 3 Norte 10 Norte 0 -- -- 81
2017-09-03 18:00:00 23.4 5 Norte 12 Norte 0 -- -- 79
2017-09-03 17:00:00 23.5 4 Norte 12 Noroeste 0 -- -- 80
2017-09-03 16:00:00 24.1 7 Norte 15 Norte 0 -- -- 77
2017-09-03 15:00:00 25.2 8 Norte 15 Norte 0 -- -- 74
2017-09-03 14:00:00 24.9 5 Norte 12 Norte 0 -- -- 74
2017-09-03 13:00:00 24.6 6 Norte 12 Norte 0 -- -- 76
2017-09-03 12:00:00 23.6 4 Nordeste 10 Norte 0 -- -- 79
2017-09-03 11:00:00 23.2 4 Nordeste 12 Nordeste 0 -- -- 80
2017-09-03 10:00:00 22.5 8 Nordeste 14 Nordeste 0 -- -- 84
2017-09-03 09:00:00 22.4 5 Este 9 Nordeste 0 -- -- 81
2017-09-03 08:00:00 22.1 4 Nordeste 14 Nordeste 0 -- -- 88
2017-09-03 07:00:00 22.1 6 Este 12 Este 0 -- -- 88
2017-09-03 06:00:00 22.4 6 Nordeste 16 Nordeste 0 -- -- 86
2017-09-03 05:00:00 22.3 5 Nordeste 12 Nordeste 0 -- -- 88
2017-09-03 04:00:00 22.4 4 Norte 9 Norte 0 -- -- 89
2017-09-03 03:00:00 22.4 0 Calma 6 Este 0 -- -- 90
2017-09-03 02:00:00 22.4 3 Norte 12 Norte 0 -- -- 87
2017-09-03 01:00:00 22.5 0 Calma 6 Nordeste 0 -- -- 86
2017-09-03 00:00:00 22.5 2 Nordeste 6 Norte 0 -- -- 82
2017-09-02 23:00:00 22.5 2 Norte 12 Norte 0 -- -- 84
2017-09-02 22:00:00 22.4 8 Norte 14 Norte 0 -- -- 86
2017-09-02 21:00:00 22.6 2 Norte 11 Norte 0 -- -- 86
2017-09-02 20:00:00 22.8 4 Norte 11 Norte 0 -- -- 85
2017-09-02 19:00:00 23.3 5 Norte 14 Norte 0 -- -- 81
2017-09-02 18:00:00 23.9 5 Norte 15 Norte 0 -- -- 78
2017-09-02 17:00:00 24.1 8 Norte 15 Noroeste 0 -- -- 78
2017-09-02 16:00:00 24.1 7 Noroeste 13 Norte 0 -- -- 74
2017-09-02 15:00:00 24.2 7 Norte 17 Norte 0 -- -- 76
2017-09-02 14:00:00 24.1 6 Noroeste 15 Norte 0 -- -- 73
2017-09-02 13:00:00 23.7 6 Noroeste 12 Noroeste 0 -- -- 74
2017-09-02 12:00:00 23.6 6 Norte 16 Norte 0 -- -- 76
2017-09-02 11:00:00 23.3 8 Norte 16 Norte 0 -- -- 77
2017-09-02 10:00:00 22.3 6 Norte 14 Norte 0 -- -- 81
2017-09-02 09:00:00 22 2 Noroeste 15 Norte 0 -- -- 82
2017-09-02 08:00:00 21.6 4 Norte 15 Norte 0 -- -- 82
2017-09-02 07:00:00 21.5 10 Norte 18 Norte 0 -- -- 81
2017-09-02 06:00:00 21.5 9 Norte 17 Norte 0 -- -- 83
2017-09-02 05:00:00 21.7 9 Norte 18 Norte 0 -- -- 82
2017-09-02 04:00:00 21.7 9 Norte 17 Norte 0 -- -- 82
2017-09-02 03:00:00 21.7 5 Nordeste 17 Nordeste 0 -- -- 83
2017-09-02 02:00:00 21.8 8 Norte 16 Norte 0 -- -- 83
2017-09-02 01:00:00 21.8 6 Norte 15 Norte 0 -- -- 84
2017-09-02 00:00:00 21.8 8 Norte 19 Norte 0 -- -- 83
2017-09-01 23:00:00 21.9 12 Norte 20 Norte 0 -- -- 83
2017-09-01 22:00:00 22.1 11 Norte 20 Norte 0 -- -- 83
2017-09-01 21:00:00 22.1 11 Norte 19 Norte 0 -- -- 83
2017-09-01 20:00:00 22.5 7 Noroeste 14 Noroeste 0 -- -- 80
2017-09-01 19:00:00 23.4 5 Noroeste 17 Noroeste 0 -- -- 77
2017-09-01 18:00:00 23.6 9 Noroeste 18 Noroeste 0 -- -- 76
2017-09-01 17:00:00 24.6 8 Noroeste 21 Noroeste 0 -- -- 70
2017-09-01 16:00:00 23.9 8 Noroeste 19 Noroeste 0 -- -- 76
2017-09-01 15:00:00 24.5 9 Noroeste 18 Norte 0 -- -- 72
2017-09-01 14:00:00 23.5 8 Norte 20 Norte 0 -- -- 75
2017-09-01 13:00:00 22.1 10 Noroeste 25 Oeste 0 -- -- 85
2017-09-01 12:00:00 24.4 11 Noroeste 19 Noroeste 0 -- -- 67
2017-09-01 11:00:00 23.1 8 Noroeste 14 Noroeste 0 -- -- 71
2017-09-01 10:00:00 23 6 Noroeste 17 Norte 0 -- -- 71
2017-09-01 09:00:00 22.3 5 Noroeste 19 Norte 0.2 -- -- 75
2017-09-01 08:00:00 21.3 12 Norte 21 Norte 0 -- -- 78
2017-09-01 07:00:00 21.2 6 Norte 26 Norte 0 -- -- 78
2017-09-01 06:00:00 21.4 10 Norte 23 Norte 0 -- -- 79
2017-09-01 05:00:00 21.6 10 Norte 24 Norte 0 -- -- 79
2017-09-01 04:00:00 21.5 8 Noroeste 22 Noroeste 0 -- -- 81
2017-09-01 03:00:00 21.3 11 Norte 26 Norte 0 -- -- 84
2017-09-01 02:00:00 21.3 9 Noroeste 26 Norte 0.2 -- -- 89
2017-09-01 01:00:00 22 9 Noroeste 24 Norte 0 -- -- 90
2017-09-01 00:00:00 22.5 12 Noroeste 20 Noroeste 0 -- -- 89
2017-08-31 23:00:00 22.2 12 Noroeste 23 Sudoeste 0 -- -- 89
2017-08-31 22:00:00 22.3 12 Oeste 23 Noroeste 0 -- -- 87
2017-08-31 21:00:00 22.9 10 Noroeste 19 Oeste 0 -- -- 82
2017-08-31 20:00:00 23.1 13 Noroeste 22 Noroeste 0 -- -- 81
2017-08-31 19:00:00 23.5 12 Noroeste 21 Noroeste 0 -- -- 79
2017-08-31 18:00:00 24.4 10 Noroeste 21 Oeste 0 -- -- 73
2017-08-31 17:00:00 24.5 10 Noroeste 23 Noroeste 0 -- -- 76
2017-08-31 16:00:00 24.7 10 Noroeste 24 Noroeste 0 -- -- 73
2017-08-31 15:00:00 25.2 9 Noroeste 23 Norte 0 -- -- 76
2017-08-31 14:00:00 23.6 13 Norte 28 Norte 0 -- -- 78
2017-08-31 13:00:00 22.7 9 Norte 29 Nordeste 0.2 -- -- 88
2017-08-31 12:00:00 24.9 8 Noroeste 25 Norte 0 -- -- 76
2017-08-31 11:00:00 24.2 7 Norte 25 Norte 0 -- -- 76
2017-08-31 10:00:00 23.1 11 Norte 26 Norte 0 -- -- 81
2017-08-31 09:00:00 23.1 5 Noroeste 18 Noroeste 0 -- -- 84
2017-08-31 08:00:00 22.4 9 Noroeste 15 Noroeste 0 -- -- 86
2017-08-31 07:00:00 22 9 Noroeste 19 Noroeste 0 -- -- 86
2017-08-31 06:00:00 22 8 Noroeste 15 Oeste 0.2 -- -- 86
2017-08-31 05:00:00 22.1 9 Oeste 15 Oeste 0 -- -- 84
2017-08-31 04:00:00 22 7 Noroeste 20 Norte 0 -- -- 84
2017-08-31 03:00:00 21.9 6 Noroeste 21 Norte 0 -- -- 84
2017-08-31 02:00:00 22 9 Norte 25 Norte 0 -- -- 88
2017-08-31 01:00:00 22.4 10 Noroeste 19 Noroeste 0 -- -- 82
2017-08-31 00:00:00 22.3 11 Noroeste 21 Noroeste 0 -- -- 83
2017-08-30 23:00:00 22.2 12 Noroeste 21 Noroeste 0 -- -- 83
2017-08-30 22:00:00 22.5 8 Norte 23 Norte 0 -- -- 83
2017-08-30 21:00:00 22.8 10 Norte 23 Norte 0 -- -- 84
2017-08-30 20:00:00 23.3 11 Norte 24 Norte 0 -- -- 81
2017-08-30 19:00:00 24.3 6 Noroeste 17 Noroeste 0 -- -- 75
2017-08-30 18:00:00 24.7 9 Norte 18 Norte 0 -- -- 74
2017-08-30 17:00:00 25.4 8 Norte 21 Norte 0 -- -- 69
2017-08-30 16:00:00 25.1 10 Norte 18 Norte 0 -- -- 73
2017-08-30 15:00:00 25.5 12 Norte 22 Noroeste 0 -- -- 70
2017-08-30 14:00:00 25.4 12 Norte 19 Norte 0 -- -- 72
2017-08-30 13:00:00 25.3 10 Norte 19 Norte 0 -- -- 72
2017-08-30 12:00:00 24.5 9 Norte 18 Norte 0 -- -- 74
2017-08-30 11:00:00 24 11 Norte 21 Norte 0 -- -- 77
2017-08-30 10:00:00 22.9 9 Norte 17 Norte 0 -- -- 80
2017-08-30 09:00:00 22.5 8 Norte 22 Nordeste 0 -- -- 84
2017-08-30 08:00:00 22 10 Norte 21 Nordeste 0 -- -- 85
2017-08-30 07:00:00 21.9 13 Norte 21 Norte 0 -- -- 86
2017-08-30 06:00:00 21.7 6 Noroeste 13 Noroeste 0 -- -- 86
2017-08-30 05:00:00 21.2 4 Oeste 8 Norte 0 -- -- 85
2017-08-30 04:00:00 21.6 5 Norte 15 Norte 0 -- -- 84
2017-08-30 03:00:00 21.6 7 Norte 13 Norte 0 -- -- 85
2017-08-30 02:00:00 21.7 6 Norte 17 Norte 0 -- -- 84
2017-08-30 01:00:00 22.2 8 Norte 18 Norte 0 -- -- 85
2017-08-30 00:00:00 22.1 5 Norte 14 Norte 0 -- -- 86
2017-08-29 23:00:00 22.1 5 Norte 22 Norte 0 -- -- 86
2017-08-29 22:00:00 22.5 4 Noroeste 17 Norte 0 -- -- 81
2017-08-29 21:00:00 22.7 9 Norte 17 Norte 0 -- -- 79
2017-08-29 20:00:00 23.3 7 Norte 15 Norte 0 -- -- 77
2017-08-29 19:00:00 24.1 6 Norte 15 Norte 0 -- -- 75
2017-08-29 18:00:00 24.3 9 Norte 16 Norte 0 -- -- 75
2017-08-29 17:00:00 24.9 11 Norte 17 Norte 0 -- -- 70
2017-08-29 16:00:00 25 9 Norte 19 Norte 0 -- -- 70
2017-08-29 15:00:00 24.5 9 Norte 15 Norte 0 -- -- 73
2017-08-29 14:00:00 24.7 8 Norte 15 Norte 0 -- -- 71
2017-08-29 13:00:00 25.1 9 Norte 16 Nordeste 0 -- -- 69
2017-08-29 12:00:00 24.7 10 Norte 19 Norte 0 -- -- 72
2017-08-29 11:00:00 23.6 6 Norte 13 Nordeste 0 -- -- 75
2017-08-29 10:00:00 23.7 7 Nordeste 20 Nordeste 0 -- -- 73
2017-08-29 09:00:00 22.7 7 Norte 16 Norte 0 -- -- 80
2017-08-29 08:00:00 21 3 Norte 14 Nordeste 0 -- -- 82
2017-08-29 07:00:00 21.1 6 Norte 13 Norte 0 -- -- 83
2017-08-29 06:00:00 21 6 Norte 11 Norte 0 -- -- 85
2017-08-29 05:00:00 21.2 7 Norte 12 Norte 0 -- -- 84
2017-08-29 04:00:00 21.3 3 Norte 10 Norte 0 -- -- 84
2017-08-29 03:00:00 21.5 4 Nordeste 11 Norte 0 -- -- 84
2017-08-29 02:00:00 21.4 0 Calma 9 Nordeste 0 -- -- 83
2017-08-29 01:00:00 21.6 3 Nordeste 13 Norte 0 -- -- 82
2017-08-29 00:00:00 21.9 4 Nordeste 12 Norte 0 -- -- 82
2017-08-28 23:00:00 22 5 Nordeste 17 Norte 0 -- -- 81
2017-08-28 22:00:00 22.3 8 Norte 15 Norte 0 -- -- 80
2017-08-28 21:00:00 22.5 7 Norte 15 Norte 0 -- -- 79
2017-08-28 20:00:00 23.2 3 Norte 14 Norte 0 -- -- 75
2017-08-28 19:00:00 24 6 Norte 13 Norte 0 -- -- 73
2017-08-28 18:00:00 24.5 6 Norte 17 Norte 0 -- -- 71
2017-08-28 17:00:00 24.8 9 Norte 17 Norte 0 -- -- 69
2017-08-28 16:00:00 25 10 Norte 16 Nordeste 0 -- -- 69
2017-08-28 15:00:00 25.5 10 Nordeste 19 Norte 0 -- -- 68
2017-08-28 14:00:00 25.4 10 Norte 18 Nordeste 0 -- -- 69
2017-08-28 13:00:00 24.6 10 Nordeste 18 Nordeste 0 -- -- 73
2017-08-28 12:00:00 23.6 10 Nordeste 18 Nordeste 0 -- -- 77
2017-08-28 11:00:00 23.4 8 Nordeste 18 Nordeste 0 -- -- 78
2017-08-28 10:00:00 23.2 10 Nordeste 17 Nordeste 0 -- -- 80
2017-08-28 09:00:00 23 6 Nordeste 16 Nordeste 0 -- -- 83
2017-08-28 08:00:00 21.8 4 Nordeste 12 Nordeste 0 -- -- 86
2017-08-28 07:00:00 21.7 3 Nordeste 8 Nordeste 0 -- -- 88
2017-08-28 06:00:00 21.8 5 Nordeste 11 Nordeste 0 -- -- 87
2017-08-28 05:00:00 21.8 6 Este 15 Este 0 -- -- 86
2017-08-28 04:00:00 22.1 7 Este 15 Este 0 -- -- 86
2017-08-28 03:00:00 22.2 6 Este 13 Nordeste 0 -- -- 87
2017-08-28 02:00:00 22.3 4 Este 12 Este 0 -- -- 84
2017-08-28 01:00:00 22.4 6 Nordeste 13 Nordeste 0 -- -- 84
2017-08-28 00:00:00 22.5 5 Nordeste 12 Nordeste 0 -- -- 84
2017-08-27 23:00:00 22.5 6 Nordeste 14 Noroeste 0 -- -- 86
2017-08-27 22:00:00 22.5 6 Norte 14 Norte 0 -- -- 85
2017-08-27 21:00:00 22.6 5 Noroeste 18 Norte 0 -- -- 86
2017-08-27 20:00:00 23.2 9 Norte 17 Norte 0 -- -- 83
2017-08-27 19:00:00 24 8 Norte 18 Norte 0 -- -- 80
2017-08-27 18:00:00 24.1 8 Norte 21 Nordeste 0 -- -- 80
2017-08-27 17:00:00 24.3 5 Noroeste 15 Norte 0 -- -- 79
2017-08-27 16:00:00 25 8 Norte 17 Norte 0 -- -- 76
2017-08-27 15:00:00 24.9 9 Norte 16 Norte 0 -- -- 77
2017-08-27 14:00:00 24.5 7 Nordeste 14 Norte 0 -- -- 77
2017-08-27 13:00:00 24.4 5 Norte 13 Norte 0 -- -- 77
2017-08-27 12:00:00 24.2 6 Norte 12 Norte 0 -- -- 76
2017-08-27 11:00:00 23.8 6 Norte 12 Norte 0 -- -- 78
2017-08-27 10:00:00 22.9 5 Norte 11 Norte 0 -- -- 82
2017-08-27 09:00:00 22.5 7 Norte 12 Norte 0 -- -- 84
2017-08-27 08:00:00 22 3 Noroeste 10 Norte 0 -- -- 85
2017-08-27 07:00:00 21.7 3 Noroeste 9 Norte 0 -- -- 86
2017-08-27 06:00:00 22.1 3 Noroeste 12 Norte 0 -- -- 85
2017-08-27 05:00:00 22 4 Norte 11 Norte 0 -- -- 85
2017-08-27 04:00:00 22.1 4 Norte 9 Norte 0 -- -- 89
2017-08-27 03:00:00 22.2 4 Noroeste 10 Norte 0 -- -- 90
2017-08-27 02:00:00 22.3 4 Noroeste 9 Norte 0 -- -- 90
2017-08-27 01:00:00 22.5 4 Noroeste 9 Noroeste 0 -- -- 91
2017-08-27 00:00:00 22.7 5 Noroeste 14 Noroeste 0 -- -- 90
2017-08-26 23:00:00 22.7 7 Noroeste 13 Oeste 0 -- -- 90
2017-08-26 22:00:00 22.8 7 Noroeste 12 Noroeste 0 -- -- 90
2017-08-26 21:00:00 23 8 Noroeste 14 Noroeste 0 -- -- 88
2017-08-26 20:00:00 23.7 8 Noroeste 18 Noroeste 0 -- -- 84
2017-08-26 19:00:00 24.3 10 Noroeste 16 Noroeste 0 -- -- 83
2017-08-26 18:00:00 24.5 9 Noroeste 20 Oeste 0 -- -- 82
2017-08-26 17:00:00 25.4 8 Noroeste 18 Noroeste 0 -- -- 78
2017-08-26 16:00:00 25 6 Norte 16 Noroeste 0 -- -- 78
2017-08-26 15:00:00 25.1 6 Noroeste 14 Noroeste 0 -- -- 77
2017-08-26 14:00:00 25.1 10 Norte 16 Norte 0 -- -- 77
2017-08-26 13:00:00 24.5 8 Noroeste 16 Norte 0 -- -- 79
2017-08-26 12:00:00 24.3 8 Noroeste 16 Noroeste 0 -- -- 79
2017-08-26 11:00:00 23.6 8 Norte 22 Noroeste 0 -- -- 82
2017-08-26 10:00:00 23.2 10 Noroeste 20 Noroeste 0 -- -- 84
2017-08-26 09:00:00 22.5 12 Noroeste 22 Noroeste 0 -- -- 86
2017-08-26 08:00:00 22.5 10 Noroeste 19 Oeste 0 -- -- 89
2017-08-26 07:00:00 22.4 10 Noroeste 17 Oeste 0 -- -- 88
2017-08-26 06:00:00 22.4 9 Noroeste 13 Oeste 0 -- -- 88
2017-08-26 05:00:00 22.5 6 Noroeste 13 Oeste 0 -- -- 88
2017-08-26 04:00:00 22.6 4 Noroeste 11 Oeste 0 -- -- 89
2017-08-26 03:00:00 22.6 7 Noroeste 14 Noroeste 0 -- -- 90
2017-08-26 02:00:00 22.8 9 Noroeste 16 Noroeste 0 -- -- 91
2017-08-26 01:00:00 22.9 6 Noroeste 13 Noroeste 0 -- -- 92
2017-08-26 00:00:00 23.2 8 Noroeste 15 Noroeste 0 -- -- 92